KFRM

Fairmont Municipal Airport

Fairmont, Minnesota, USA
METAR KFRM 201956Z AUTO 35011KT 9SM -RA SCT007 21/20 A2992 RMK AO2 SLP129 P0000 T02110200
Observed Flight Rules
Aug-20 @ 19:56 UTC (33 minutes ago) Visual Flight Rules
Wind Visibility Clouds Conditions
350° at 11 knots 9 miles
  • Scattered at 700' AGL
  • Light Rain
Temperatures Readings Precipitation
Current 21°C / 70°F
Dewpoint 20°C / 68°F
Humidity 94%
Altimeter 29.92" Hg
Pressure 1012.9 hPa
Elevation 354
Current Rain 0.005
METAR KFRM 201956Z AUTO 35011KT 9SM -RA SCT007 21/20 A2992 RMK AO2 SLP129 P0000 T02110200
Observed Flight Rules
Aug-20 @ 19:56 UTC
(33 minutes ago)
VFR
Wind Visibility
350° at 11 knots 9 miles
Clouds
  • Scattered at 700' AGL
Conditions
  • Light Rain
Temperature Dewpoint
21°C / 70°F 20°C / 68°F
Humidity Altimeter Pressure
94% 29.92" Hg 1012.9 hPa
Current Rain
0.005